sensor_id;sensor_type;location;lat;lon;timestamp;pressure;altitude;pressure_sealevel;temperature;humidity
65685;BME280;52405;50.844;-1.062;2022-09-09T00:01:33;100371.94;;;17.98;73.37
65685;BME280;52405;50.844;-1.062;2022-09-09T00:04:27;100370.22;;;17.94;73.61
65685;BME280;52405;50.844;-1.062;2022-09-09T00:09:21;100388.56;;;17.88;73.00
65685;BME280;52405;50.844;-1.062;2022-09-09T00:11:58;100376.31;;;17.79;73.17
65685;BME280;52405;50.844;-1.062;2022-09-09T00:14:37;100382.41;;;17.83;73.73
65685;BME280;52405;50.844;-1.062;2022-09-09T00:17:18;100384.22;;;17.87;74.18
65685;BME280;52405;50.844;-1.062;2022-09-09T00:19:56;100370.16;;;17.72;73.80
65685;BME280;52405;50.844;-1.062;2022-09-09T00:22:28;100378.94;;;17.78;73.85
65685;BME280;52405;50.844;-1.062;2022-09-09T00:25:01;100385.03;;;17.84;73.64
65685;BME280;52405;50.844;-1.062;2022-09-09T00:27:45;100387.69;;;17.80;74.21
65685;BME280;52405;50.844;-1.062;2022-09-09T00:30:21;100384.16;;;17.75;73.68
65685;BME280;52405;50.844;-1.062;2022-09-09T00:32:58;100389.41;;;17.71;73.58
65685;BME280;52405;50.844;-1.062;2022-09-09T00:35:37;100382.41;;;17.69;74.37
65685;BME280;52405;50.844;-1.062;2022-09-09T00:38:18;100361.38;;;17.55;74.22
65685;BME280;52405;50.844;-1.062;2022-09-09T00:51:29;100379.75;;;17.57;73.70
65685;BME280;52405;50.844;-1.062;2022-09-09T00:54:26;100364.84;;;17.39;73.86
65685;BME280;52405;50.844;-1.062;2022-09-09T00:57:27;100383.28;;;17.48;73.48
65685;BME280;52405;50.844;-1.062;2022-09-09T01:05:39;100368.31;;;17.25;73.40
65685;BME280;52405;50.844;-1.062;2022-09-09T01:11:02;100383.19;;;17.25;73.40
65685;BME280;52405;50.844;-1.062;2022-09-09T01:13:33;100397.19;;;17.25;74.10
65685;BME280;52405;50.844;-1.062;2022-09-09T01:16:02;100383.19;;;17.19;74.24
65685;BME280;52405;50.844;-1.062;2022-09-09T01:18:49;100393.69;;;17.22;74.17
65685;BME280;52405;50.844;-1.062;2022-09-09T01:21:42;100393.69;;;17.22;74.22
65685;BME280;52405;50.844;-1.062;2022-09-09T01:26:46;100405.06;;;17.25;74.77
65685;BME280;52405;50.844;-1.062;2022-09-09T01:29:15;100401.59;;;17.28;75.01
65685;BME280;52405;50.844;-1.062;2022-09-09T01:31:57;100397.22;;;17.30;74.90
65685;BME280;52405;50.844;-1.062;2022-09-09T01:34:27;100385.78;;;17.20;75.26
65685;BME280;52405;50.844;-1.062;2022-09-09T01:37:10;100406.84;;;17.32;75.36
65685;BME280;52405;50.844;-1.062;2022-09-09T01:39:39;100393.69;;;17.23;74.90
65685;BME280;52405;50.844;-1.062;2022-09-09T01:42:08;100381.44;;;17.21;75.03
65685;BME280;52405;50.844;-1.062;2022-09-09T01:44:34;100409.50;;;17.36;74.72
65685;BME280;52405;50.844;-1.062;2022-09-09T01:47:01;100412.09;;;17.39;74.98
65685;BME280;52405;50.844;-1.062;2022-09-09T01:49:26;100412.13;;;17.42;75.23
65685;BME280;52405;50.844;-1.062;2022-09-09T01:51:54;100406.00;;;17.43;74.45
65685;BME280;52405;50.844;-1.062;2022-09-09T01:54:22;100412.13;;;17.45;74.64
65685;BME280;52405;50.844;-1.062;2022-09-09T02:02:24;100401.63;;;17.42;74.64
65685;BME280;52405;50.844;-1.062;2022-09-09T02:05:04;100412.16;;;17.48;74.63
65685;BME280;52405;50.844;-1.062;2022-09-09T02:07:39;100403.38;;;17.40;74.84
65685;BME280;52405;50.844;-1.062;2022-09-09T02:10:21;100417.41;;;17.48;75.11
65685;BME280;52405;50.844;-1.062;2022-09-09T02:12:52;100416.50;;;17.49;74.71
65685;BME280;52405;50.844;-1.062;2022-09-09T02:15:37;100414.72;;;17.40;74.69
65685;BME280;52405;50.844;-1.062;2022-09-09T02:18:07;100427.88;;;17.51;74.65
65685;BME280;52405;50.844;-1.062;2022-09-09T02:20:36;100384.94;;;17.27;74.33
65685;BME280;52405;50.844;-1.062;2022-09-09T02:23:04;100423.50;;;17.51;74.73
65685;BME280;52405;50.844;-1.062;2022-09-09T02:25:30;100430.53;;;17.54;74.95
65685;BME280;52405;50.844;-1.062;2022-09-09T02:27:56;100425.28;;;17.56;74.60
65685;BME280;52405;50.844;-1.062;2022-09-09T02:30:27;100423.50;;;17.53;74.22
65685;BME280;52405;50.844;-1.062;2022-09-09T02:32:55;100428.78;;;17.54;74.17
65685;BME280;52405;50.844;-1.062;2022-09-09T02:35:26;100420.00;;;17.49;74.40
65685;BME280;52405;50.844;-1.062;2022-09-09T02:37:55;100422.66;;;17.48;74.35
65685;BME280;52405;50.844;-1.062;2022-09-09T02:40:22;100439.28;;;17.54;74.65
65685;BME280;52405;50.844;-1.062;2022-09-09T02:42:48;100439.28;;;17.53;74.88
65685;BME280;52405;50.844;-1.062;2022-09-09T02:45:18;100420.88;;;17.38;74.45
65685;BME280;52405;50.844;-1.062;2022-09-09T02:48:03;100448.03;;;17.52;74.27
65685;BME280;52405;50.844;-1.062;2022-09-09T02:50:34;100455.00;;;17.51;74.08
65685;BME280;52405;50.844;-1.062;2022-09-09T02:53:20;100458.56;;;17.53;74.38
65685;BME280;52405;50.844;-1.062;2022-09-09T02:55:52;100458.56;;;17.53;74.57
65685;BME280;52405;50.844;-1.062;2022-09-09T02:58:20;100455.91;;;17.55;74.08
65685;BME280;52405;50.844;-1.062;2022-09-09T03:00:47;100449.78;;;17.54;73.87
65685;BME280;52405;50.844;-1.062;2022-09-09T03:03:12;100438.41;;;17.48;74.41
65685;BME280;52405;50.844;-1.062;2022-09-09T03:05:38;100422.63;;;17.43;74.17
65685;BME280;52405;50.844;-1.062;2022-09-09T03:08:04;100447.16;;;17.56;73.67
65685;BME280;52405;50.844;-1.062;2022-09-09T03:10:31;100448.91;;;17.52;73.91
65685;BME280;52405;50.844;-1.062;2022-09-09T03:12:57;100450.63;;;17.47;73.64
65685;BME280;52405;50.844;-1.062;2022-09-09T03:15:23;100459.38;;;17.40;73.67
65685;BME280;52405;50.844;-1.062;2022-09-09T03:17:48;100460.25;;;17.38;74.02
65685;BME280;52405;50.844;-1.062;2022-09-09T03:20:14;100464.59;;;17.32;74.43
65685;BME280;52405;50.844;-1.062;2022-09-09T03:22:39;100454.94;;;17.25;74.30
65685;BME280;52405;50.844;-1.062;2022-09-09T03:25:05;100455.75;;;17.17;74.04
65685;BME280;52405;50.844;-1.062;2022-09-09T03:27:31;100454.91;;;17.13;74.28
65685;BME280;52405;50.844;-1.062;2022-09-09T03:29:57;100455.78;;;17.13;74.58
65685;BME280;52405;50.844;-1.062;2022-09-09T03:32:23;100461.00;;;17.17;74.44
65685;BME280;52405;50.844;-1.062;2022-09-09T03:34:51;100470.63;;;17.16;74.17
65685;BME280;52405;50.844;-1.062;2022-09-09T03:37:17;100480.25;;;17.12;74.37
65685;BME280;52405;50.844;-1.062;2022-09-09T03:39:43;100467.06;;;17.02;74.88
65685;BME280;52405;50.844;-1.062;2022-09-09T03:42:09;100486.34;;;17.07;74.76
65685;BME280;52405;50.844;-1.062;2022-09-09T03:44:35;100479.34;;;17.06;75.30
65685;BME280;52405;50.844;-1.062;2022-09-09T03:47:00;100489.84;;;17.07;75.55
65685;BME280;52405;50.844;-1.062;2022-09-09T03:49:26;100497.72;;;17.09;75.70
65685;BME280;52405;50.844;-1.062;2022-09-09T03:51:55;100495.09;;;17.09;75.13
65685;BME280;52405;50.844;-1.062;2022-09-09T03:54:22;100492.44;;;17.03;75.07
65685;BME280;52405;50.844;-1.062;2022-09-09T03:56:47;100490.69;;;17.02;75.59
65685;BME280;52405;50.844;-1.062;2022-09-09T03:59:13;100502.97;;;17.09;75.16
65685;BME280;52405;50.844;-1.062;2022-09-09T04:01:39;100511.72;;;17.11;75.69
65685;BME280;52405;50.844;-1.062;2022-09-09T04:04:05;100510.00;;;17.13;75.12
65685;BME280;52405;50.844;-1.062;2022-09-09T04:06:30;100510.00;;;17.16;75.47
65685;BME280;52405;50.844;-1.062;2022-09-09T04:08:56;100503.91;;;17.17;75.08
65685;BME280;52405;50.844;-1.062;2022-09-09T04:11:21;100507.41;;;17.21;75.17
65685;BME280;52405;50.844;-1.062;2022-09-09T04:13:47;100510.94;;;17.23;75.53
65685;BME280;52405;50.844;-1.062;2022-09-09T04:16:13;100503.03;;;17.20;75.13
65685;BME280;52405;50.844;-1.062;2022-09-09T04:18:39;100505.66;;;17.26;74.88
65685;BME280;52405;50.844;-1.062;2022-09-09T04:21:05;100506.59;;;17.28;75.00
65685;BME280;52405;50.844;-1.062;2022-09-09T04:23:31;100510.06;;;17.28;74.66
65685;BME280;52405;50.844;-1.062;2022-09-09T04:26:00;100514.44;;;17.31;74.91
65685;BME280;52405;50.844;-1.062;2022-09-09T04:28:28;100496.03;;;17.20;74.96
65685;BME280;52405;50.844;-1.062;2022-09-09T04:30:54;100503.94;;;17.25;74.91
65685;BME280;52405;50.844;-1.062;2022-09-09T04:33:20;100516.22;;;17.32;74.60
65685;BME280;52405;50.844;-1.062;2022-09-09T04:35:47;100526.72;;;17.33;74.69
65685;BME280;52405;50.844;-1.062;2022-09-09T04:38:14;100496.00;;;17.14;74.70
65685;BME280;52405;50.844;-1.062;2022-09-09T04:40:47;100527.56;;;17.29;74.67
65685;BME280;52405;50.844;-1.062;2022-09-09T04:43:13;100530.19;;;17.31;74.64
65685;BME280;52405;50.844;-1.062;2022-09-09T04:45:41;100527.56;;;17.29;74.76
65685;BME280;52405;50.844;-1.062;2022-09-09T04:48:07;100538.13;;;17.36;74.71
65685;BME280;52405;50.844;-1.062;2022-09-09T04:50:34;100537.22;;;17.37;74.76
65685;BME280;52405;50.844;-1.062;2022-09-09T04:53:01;100545.09;;;17.37;74.57
65685;BME280;52405;50.844;-1.062;2022-09-09T04:55:27;100536.34;;;17.31;74.63
65685;BME280;52405;50.844;-1.062;2022-09-09T04:57:52;100540.75;;;17.37;75.23
65685;BME280;52405;50.844;-1.062;2022-09-09T05:00:18;100548.63;;;17.37;74.71
65685;BME280;52405;50.844;-1.062;2022-09-09T05:02:44;100550.34;;;17.37;75.06
65685;BME280;52405;50.844;-1.062;2022-09-09T05:05:10;100546.84;;;17.34;74.96
65685;BME280;52405;50.844;-1.062;2022-09-09T05:07:36;100523.19;;;17.28;74.65
65685;BME280;52405;50.844;-1.062;2022-09-09T05:10:02;100524.06;;;17.27;74.67
65685;BME280;52405;50.844;-1.062;2022-09-09T05:12:30;100541.59;;;17.34;74.52
65685;BME280;52405;50.844;-1.062;2022-09-09T05:14:56;100553.00;;;17.38;74.31
65685;BME280;52405;50.844;-1.062;2022-09-09T05:17:22;100543.34;;;17.34;74.41
65685;BME280;52405;50.844;-1.062;2022-09-09T05:19:47;100558.25;;;17.38;74.36
65685;BME280;52405;50.844;-1.062;2022-09-09T05:22:13;100557.38;;;17.38;74.35
65685;BME280;52405;50.844;-1.062;2022-09-09T05:24:43;100567.84;;;17.34;74.69
65685;BME280;52405;50.844;-1.062;2022-09-09T05:27:09;100572.25;;;17.36;74.23
65685;BME280;52405;50.844;-1.062;2022-09-09T05:29:37;100561.72;;;17.32;74.22
65685;BME280;52405;50.844;-1.062;2022-09-09T05:32:03;100567.84;;;17.34;74.79
65685;BME280;52405;50.844;-1.062;2022-09-09T05:34:29;100566.09;;;17.33;74.53
65685;BME280;52405;50.844;-1.062;2022-09-09T05:36:54;100566.09;;;17.32;74.50
65685;BME280;52405;50.844;-1.062;2022-09-09T05:39:20;100576.59;;;17.32;74.39
65685;BME280;52405;50.844;-1.062;2022-09-09T05:41:45;100577.44;;;17.31;74.88
65685;BME280;52405;50.844;-1.062;2022-09-09T05:44:10;100581.81;;;17.29;74.86
65685;BME280;52405;50.844;-1.062;2022-09-09T05:46:36;100584.44;;;17.29;74.85
65685;BME280;52405;50.844;-1.062;2022-09-09T05:49:02;100583.59;;;17.30;74.85
65685;BME280;52405;50.844;-1.062;2022-09-09T05:51:29;100574.81;;;17.29;74.15
65685;BME280;52405;50.844;-1.062;2022-09-09T05:53:58;100573.91;;;17.26;74.20
65685;BME280;52405;50.844;-1.062;2022-09-09T05:56:26;100580.06;;;17.28;74.45
65685;BME280;52405;50.844;-1.062;2022-09-09T05:58:53;100594.94;;;17.29;74.79
65685;BME280;52405;50.844;-1.062;2022-09-09T06:01:24;100587.06;;;17.29;74.32
65685;BME280;52405;50.844;-1.062;2022-09-09T06:03:51;100595.81;;;17.29;74.05
65685;BME280;52405;50.844;-1.062;2022-09-09T06:06:19;100600.19;;;17.30;74.22
65685;BME280;52405;50.844;-1.062;2022-09-09T06:08:50;100599.34;;;17.30;74.41
65685;BME280;52405;50.844;-1.062;2022-09-09T06:11:27;100587.94;;;17.26;73.94
65685;BME280;52405;50.844;-1.062;2022-09-09T06:13:56;100592.34;;;17.33;73.59
65685;BME280;52405;50.844;-1.062;2022-09-09T06:16:24;100604.59;;;17.34;73.99
65685;BME280;52405;50.844;-1.062;2022-09-09T06:18:51;100597.59;;;17.37;73.85
65685;BME280;52405;50.844;-1.062;2022-09-09T06:21:22;100603.75;;;17.39;73.08
65685;BME280;52405;50.844;-1.062;2022-09-09T06:23:48;100588.84;;;17.33;73.59
65685;BME280;52405;50.844;-1.062;2022-09-09T06:26:24;100582.69;;;17.28;73.66
65685;BME280;52405;50.844;-1.062;2022-09-09T06:28:52;100606.41;;;17.45;73.49
65685;BME280;52405;50.844;-1.062;2022-09-09T06:31:20;100600.31;;;17.44;73.46
65685;BME280;52405;50.844;-1.062;2022-09-09T06:33:50;100613.47;;;17.52;73.44
65685;BME280;52405;50.844;-1.062;2022-09-09T06:36:19;100623.97;;;17.53;72.97
65685;BME280;52405;50.844;-1.062;2022-09-09T06:38:45;100636.25;;;17.59;72.84
65685;BME280;52405;50.844;-1.062;2022-09-09T06:41:12;100635.38;;;17.60;73.07
65685;BME280;52405;50.844;-1.062;2022-09-09T06:43:38;100640.63;;;17.60;72.82
65685;BME280;52405;50.844;-1.062;2022-09-09T06:46:11;100634.53;;;17.61;72.31
65685;BME280;52405;50.844;-1.062;2022-09-09T06:48:38;100648.53;;;17.63;73.02
65685;BME280;52405;50.844;-1.062;2022-09-09T06:51:09;100645.03;;;17.66;73.14
65685;BME280;52405;50.844;-1.062;2022-09-09T06:53:37;100649.47;;;17.70;72.97
65685;BME280;52405;50.844;-1.062;2022-09-09T06:58:50;100643.31;;;17.69;72.72
65685;BME280;52405;50.844;-1.062;2022-09-09T07:01:18;100644.19;;;17.68;72.94
65685;BME280;52405;50.844;-1.062;2022-09-09T07:03:50;100653.84;;;17.74;72.96
65685;BME280;52405;50.844;-1.062;2022-09-09T07:06:21;100646.81;;;17.68;72.83
65685;BME280;52405;50.844;-1.062;2022-09-09T07:08:53;100682.84;;;17.85;72.60
65685;BME280;52405;50.844;-1.062;2022-09-09T07:11:21;100673.13;;;17.81;72.65
65685;BME280;52405;50.844;-1.062;2022-09-09T07:13:47;100681.09;;;17.85;72.26
65685;BME280;52405;50.844;-1.062;2022-09-09T07:16:15;100676.72;;;17.89;73.03
65685;BME280;52405;50.844;-1.062;2022-09-09T07:18:41;100684.63;;;17.92;72.91
65685;BME280;52405;50.844;-1.062;2022-09-09T07:21:09;100683.78;;;17.98;72.95
65685;BME280;52405;50.844;-1.062;2022-09-09T07:23:35;100678.53;;;18.02;72.38
65685;BME280;52405;50.844;-1.062;2022-09-09T07:26:08;100695.22;;;18.15;72.39
65685;BME280;52405;50.844;-1.062;2022-09-09T07:28:34;100695.28;;;18.32;72.07
65685;BME280;52405;50.844;-1.062;2022-09-09T07:31:01;100697.97;;;18.54;71.60
65685;BME280;52405;50.844;-1.062;2022-09-09T07:33:28;100703.28;;;18.66;71.12
65685;BME280;52405;50.844;-1.062;2022-09-09T07:36:08;100705.06;;;18.73;70.13
65685;BME280;52405;50.844;-1.062;2022-09-09T07:38:39;100707.72;;;18.81;70.21
65685;BME280;52405;50.844;-1.062;2022-09-09T07:41:09;100709.47;;;18.91;69.68
65685;BME280;52405;50.844;-1.062;2022-09-09T07:43:41;100666.47;;;18.74;69.15
65685;BME280;52405;50.844;-1.062;2022-09-09T07:46:08;100714.78;;;19.08;68.59
65685;BME280;52405;50.844;-1.062;2022-09-09T07:48:35;100714.75;;;19.11;68.35
65685;BME280;52405;50.844;-1.062;2022-09-09T07:51:13;100720.06;;;19.19;68.01
65685;BME280;52405;50.844;-1.062;2022-09-09T07:53:42;100721.78;;;19.21;68.21
65685;BME280;52405;50.844;-1.062;2022-09-09T07:56:13;100723.53;;;19.24;67.99
65685;BME280;52405;50.844;-1.062;2022-09-09T07:58:40;100728.81;;;19.29;67.29
65685;BME280;52405;50.844;-1.062;2022-09-09T08:01:18;100732.34;;;19.43;66.32
65685;BME280;52405;50.844;-1.062;2022-09-09T08:03:45;100730.53;;;19.60;66.49
65685;BME280;52405;50.844;-1.062;2022-09-09T08:06:12;100738.47;;;19.73;65.75
65685;BME280;52405;50.844;-1.062;2022-09-09T08:08:39;100732.31;;;19.77;65.47
65685;BME280;52405;50.844;-1.062;2022-09-09T08:11:13;100740.22;;;19.80;65.36
65685;BME280;52405;50.844;-1.062;2022-09-09T08:13:40;100736.69;;;19.84;65.30
65685;BME280;52405;50.844;-1.062;2022-09-09T08:16:08;100742.81;;;19.97;65.23
65685;BME280;52405;50.844;-1.062;2022-09-09T08:18:34;100755.94;;;20.17;64.72
65685;BME280;52405;50.844;-1.062;2022-09-09T08:21:11;100750.50;;;20.62;64.46
65685;BME280;52405;50.844;-1.062;2022-09-09T08:23:39;100750.91;;;21.33;63.26
65685;BME280;52405;50.844;-1.062;2022-09-09T08:26:06;100752.69;;;22.22;61.80
65685;BME280;52405;50.844;-1.062;2022-09-09T08:28:34;100728.53;;;23.12;59.47
65685;BME280;52405;50.844;-1.062;2022-09-09T08:31:17;100747.41;;;24.40;55.68
65685;BME280;52405;50.844;-1.062;2022-09-09T08:33:44;100747.13;;;25.32;55.19
65685;BME280;52405;50.844;-1.062;2022-09-09T08:36:14;100727.06;;;25.86;52.69
65685;BME280;52405;50.844;-1.062;2022-09-09T08:38:42;100752.69;;;26.23;50.55
65685;BME280;52405;50.844;-1.062;2022-09-09T08:44:24;100744.13;;;27.01;47.87
65685;BME280;52405;50.844;-1.062;2022-09-09T08:52:31;100762.56;;;28.37;45.16
65685;BME280;52405;50.844;-1.062;2022-09-09T08:57:49;100737.78;;;29.01;43.06
65685;BME280;52405;50.844;-1.062;2022-09-09T09:00:16;100757.38;;;28.80;42.15
65685;BME280;52405;50.844;-1.062;2022-09-09T09:03:06;100769.25;;;28.49;42.13
65685;BME280;52405;50.844;-1.062;2022-09-09T09:05:50;100771.16;;;28.22;41.63
65685;BME280;52405;50.844;-1.062;2022-09-09T09:11:03;100767.91;;;28.61;41.72
65685;BME280;52405;50.844;-1.062;2022-09-09T09:13:57;100781.44;;;29.02;39.97
65685;BME280;52405;50.844;-1.062;2022-09-09T09:17:01;100778.25;;;29.16;40.36
65685;BME280;52405;50.844;-1.062;2022-09-09T09:19:20;100775.97;;;29.05;39.75
65685;BME280;52405;50.844;-1.062;2022-09-09T09:22:03;100768.56;;;28.68;39.53
65685;BME280;52405;50.844;-1.062;2022-09-09T09:24:43;100787.88;;;28.51;39.27
65685;BME280;52405;50.844;-1.062;2022-09-09T09:27:18;100795.25;;;28.20;39.70
65685;BME280;52405;50.844;-1.062;2022-09-09T09:29:49;100795.84;;;28.03;40.08
65685;BME280;52405;50.844;-1.062;2022-09-09T09:32:18;100798.16;;;28.14;39.82
65685;BME280;52405;50.844;-1.062;2022-09-09T09:34:53;100798.91;;;27.93;39.57
65685;BME280;52405;50.844;-1.062;2022-09-09T09:37:34;100803.00;;;27.76;39.38
65685;BME280;52405;50.844;-1.062;2022-09-09T09:40:13;100810.03;;;27.52;39.50
65685;BME280;52405;50.844;-1.062;2022-09-09T09:43:18;100806.22;;;27.04;39.61
65685;BME280;52405;50.844;-1.062;2022-09-09T09:45:45;100811.22;;;26.55;41.30
65685;BME280;52405;50.844;-1.062;2022-09-09T09:48:12;100810.59;;;26.14;42.71
65685;BME280;52405;50.844;-1.062;2022-09-09T09:50:48;100813.19;;;25.83;43.24
65685;BME280;52405;50.844;-1.062;2022-09-09T09:56:06;100827.06;;;25.23;43.97
65685;BME280;52405;50.844;-1.062;2022-09-09T09:58:50;100838.28;;;24.96;44.78
65685;BME280;52405;50.844;-1.062;2022-09-09T10:03:58;100834.13;;;24.41;45.92
65685;BME280;52405;50.844;-1.062;2022-09-09T10:06:34;100835.16;;;24.32;46.42
65685;BME280;52405;50.844;-1.062;2022-09-09T10:09:01;100838.78;;;24.28;46.21
65685;BME280;52405;50.844;-1.062;2022-09-09T10:14:21;100835.00;;;24.40;46.91
65685;BME280;52405;50.844;-1.062;2022-09-09T10:20:04;100838.59;;;24.82;46.13
65685;BME280;52405;50.844;-1.062;2022-09-09T10:22:39;100834.47;;;25.08;45.23
65685;BME280;52405;50.844;-1.062;2022-09-09T10:25:24;100840.59;;;25.12;44.61
65685;BME280;52405;50.844;-1.062;2022-09-09T10:28:31;100839.69;;;25.13;44.78
65685;BME280;52405;50.844;-1.062;2022-09-09T10:31:21;100839.56;;;25.19;45.28
65685;BME280;52405;50.844;-1.062;2022-09-09T10:33:51;100842.19;;;25.20;44.23
65685;BME280;52405;50.844;-1.062;2022-09-09T10:36:25;100843.41;;;25.45;44.21
65685;BME280;52405;50.844;-1.062;2022-09-09T10:39:01;100844.34;;;25.78;44.15
65685;BME280;52405;50.844;-1.062;2022-09-09T10:41:44;100851.50;;;26.12;43.60
65685;BME280;52405;50.844;-1.062;2022-09-09T10:49:34;100853.53;;;25.66;44.37
65685;BME280;52405;50.844;-1.062;2022-09-09T10:57:11;100861.00;;;25.11;44.48
65685;BME280;52405;50.844;-1.062;2022-09-09T10:59:44;100870.22;;;24.95;45.23
65685;BME280;52405;50.844;-1.062;2022-09-09T11:02:16;100866.09;;;24.80;46.08
65685;BME280;52405;50.844;-1.062;2022-09-09T11:05:18;100868.06;;;24.70;46.34
65685;BME280;52405;50.844;-1.062;2022-09-09T11:08:04;100864.69;;;24.62;46.47
65685;BME280;52405;50.844;-1.062;2022-09-09T11:13:11;100854.66;;;24.30;47.09
65685;BME280;52405;50.844;-1.062;2022-09-09T11:15:48;100875.13;;;24.24;47.58
65685;BME280;52405;50.844;-1.062;2022-09-09T11:18:21;100860.47;;;24.02;47.53
65685;BME280;52405;50.844;-1.062;2022-09-09T11:20:50;100882.72;;;23.95;48.20
65685;BME280;52405;50.844;-1.062;2022-09-09T11:23:22;100882.09;;;23.77;48.50
65685;BME280;52405;50.844;-1.062;2022-09-09T11:26:00;100881.47;;;23.60;48.94
65685;BME280;52405;50.844;-1.062;2022-09-09T11:33:56;100903.09;;;23.32;49.82
65685;BME280;52405;50.844;-1.062;2022-09-09T11:39:15;100890.94;;;23.17;52.02
65685;BME280;52405;50.844;-1.062;2022-09-09T11:41:46;100902.28;;;23.28;51.51
65685;BME280;52405;50.844;-1.062;2022-09-09T11:44:17;100905.75;;;23.32;52.31
65685;BME280;52405;50.844;-1.062;2022-09-09T11:46:49;100903.09;;;23.32;51.02
65685;BME280;52405;50.844;-1.062;2022-09-09T11:49:39;100862.78;;;23.12;51.98
65685;BME280;52405;50.844;-1.062;2022-09-09T11:54:47;100908.97;;;23.54;50.71
65685;BME280;52405;50.844;-1.062;2022-09-09T11:57:24;100886.03;;;23.53;51.43
65685;BME280;52405;50.844;-1.062;2022-09-09T11:59:51;100898.88;;;23.78;52.04
65685;BME280;52405;50.844;-1.062;2022-09-09T12:02:28;100909.31;;;23.92;51.72
65685;BME280;52405;50.844;-1.062;2022-09-09T12:07:56;100909.19;;;23.98;50.94
65685;BME280;52405;50.844;-1.062;2022-09-09T12:10:38;100902.16;;;23.97;50.46
65685;BME280;52405;50.844;-1.062;2022-09-09T12:13:25;100901.34;;;23.92;49.90
65685;BME280;52405;50.844;-1.062;2022-09-09T12:15:52;100901.41;;;23.89;50.16
65685;BME280;52405;50.844;-1.062;2022-09-09T12:18:45;100913.00;;;23.81;51.04
65685;BME280;52405;50.844;-1.062;2022-09-09T12:24:11;100917.69;;;23.62;52.70
65685;BME280;52405;50.844;-1.062;2022-09-09T12:27:11;100919.63;;;23.53;53.30
65685;BME280;52405;50.844;-1.062;2022-09-09T12:32:15;100907.63;;;23.25;52.34
65685;BME280;52405;50.844;-1.062;2022-09-09T12:34:47;100917.50;;;23.14;52.64
65685;BME280;52405;50.844;-1.062;2022-09-09T12:40:05;100914.16;;;22.95;53.42
65685;BME280;52405;50.844;-1.062;2022-09-09T12:42:32;100900.25;;;22.78;54.44
65685;BME280;52405;50.844;-1.062;2022-09-09T12:45:03;100920.53;;;22.79;54.96
65685;BME280;52405;50.844;-1.062;2022-09-09T12:50:01;100925.09;;;22.64;55.12
65685;BME280;52405;50.844;-1.062;2022-09-09T12:52:35;100932.22;;;22.61;56.36
65685;BME280;52405;50.844;-1.062;2022-09-09T12:55:05;100923.41;;;22.59;56.04
65685;BME280;52405;50.844;-1.062;2022-09-09T12:57:36;100925.22;;;22.55;54.46
65685;BME280;52405;50.844;-1.062;2022-09-09T13:00:14;100925.28;;;22.49;54.39
65685;BME280;52405;50.844;-1.062;2022-09-09T13:05:24;100923.66;;;22.37;55.37
65685;BME280;52405;50.844;-1.062;2022-09-09T13:07:50;100927.25;;;22.31;54.68
65685;BME280;52405;50.844;-1.062;2022-09-09T13:10:28;100933.47;;;22.20;55.97
65685;BME280;52405;50.844;-1.062;2022-09-09T13:12:54;100950.34;;;22.05;56.22
65685;BME280;52405;50.844;-1.062;2022-09-09T13:15:22;100953.16;;;21.83;57.19
65685;BME280;52405;50.844;-1.062;2022-09-09T13:17:57;100957.69;;;21.63;57.32
65685;BME280;52405;50.844;-1.062;2022-09-09T13:20:25;100949.88;;;21.49;58.21
65685;BME280;52405;50.844;-1.062;2022-09-09T13:22:52;100948.13;;;21.40;58.63
65685;BME280;52405;50.844;-1.062;2022-09-09T13:25:24;100946.38;;;21.33;59.75
65685;BME280;52405;50.844;-1.062;2022-09-09T13:28:04;100958.69;;;21.38;59.93
65685;BME280;52405;50.844;-1.062;2022-09-09T13:30:31;100962.19;;;21.41;59.88
65685;BME280;52405;50.844;-1.062;2022-09-09T13:35:32;100963.06;;;21.43;59.67
65685;BME280;52405;50.844;-1.062;2022-09-09T13:37:59;100963.09;;;21.46;60.09
65685;BME280;52405;50.844;-1.062;2022-09-09T13:40:31;100961.31;;;21.40;59.73
65685;BME280;52405;50.844;-1.062;2022-09-09T13:42:58;100971.00;;;21.43;59.58
65685;BME280;52405;50.844;-1.062;2022-09-09T13:45:25;100969.25;;;21.42;60.26
65685;BME280;52405;50.844;-1.062;2022-09-09T13:47:53;100971.88;;;21.43;60.04
65685;BME280;52405;50.844;-1.062;2022-09-09T13:50:30;100961.31;;;21.43;60.75
65685;BME280;52405;50.844;-1.062;2022-09-09T13:52:57;100969.19;;;21.54;61.04
65685;BME280;52405;50.844;-1.062;2022-09-09T13:55:27;100968.31;;;21.60;60.66
65685;BME280;52405;50.844;-1.062;2022-09-09T13:58:03;100969.13;;;21.66;60.22
65685;BME280;52405;50.844;-1.062;2022-09-09T14:00:32;100974.38;;;21.75;60.18
65685;BME280;52405;50.844;-1.062;2022-09-09T14:02:58;100971.72;;;21.79;60.50
65685;BME280;52405;50.844;-1.062;2022-09-09T14:05:26;100974.34;;;21.80;60.09
65685;BME280;52405;50.844;-1.062;2022-09-09T14:07:52;100972.56;;;21.81;59.93
65685;BME280;52405;50.844;-1.062;2022-09-09T14:10:18;100971.72;;;21.77;59.11
65685;BME280;52405;50.844;-1.062;2022-09-09T14:12:43;100960.34;;;21.66;59.31
65685;BME280;52405;50.844;-1.062;2022-09-09T14:15:11;100971.78;;;21.65;59.35
65685;BME280;52405;50.844;-1.062;2022-09-09T14:17:36;100972.69;;;21.61;59.59
65685;BME280;52405;50.844;-1.062;2022-09-09T14:20:07;100971.78;;;21.63;58.94
65685;BME280;52405;50.844;-1.062;2022-09-09T14:22:34;100979.72;;;21.66;58.75
65685;BME280;52405;50.844;-1.062;2022-09-09T14:25:00;100976.19;;;21.66;59.03
65685;BME280;52405;50.844;-1.062;2022-09-09T14:27:27;100971.78;;;21.68;58.57
65685;BME280;52405;50.844;-1.062;2022-09-09T14:29:52;100948.03;;;21.60;58.60
65685;BME280;52405;50.844;-1.062;2022-09-09T14:32:21;100970.78;;;21.83;58.69
65685;BME280;52405;50.844;-1.062;2022-09-09T14:34:47;100973.34;;;21.97;59.07
65685;BME280;52405;50.844;-1.062;2022-09-09T14:37:16;100971.44;;;22.14;58.38
65685;BME280;52405;50.844;-1.062;2022-09-09T14:39:42;100967.81;;;22.27;57.51
65685;BME280;52405;50.844;-1.062;2022-09-09T14:42:13;100971.28;;;22.37;56.86